sensor_id;sensor_type;location;lat;lon;timestamp;P1;durP1;ratioP1;P2;durP2;ratioP2
67751;SDS011;54551;51.068;5.826;2022-11-20T00:00:43;28.80;;;21.53;;
67751;SDS011;54551;51.068;5.826;2022-11-20T00:03:09;37.20;;;24.63;;
67751;SDS011;54551;51.068;5.826;2022-11-20T00:05:35;30.93;;;20.20;;
67751;SDS011;54551;51.068;5.826;2022-11-20T00:08:01;31.33;;;22.17;;
67751;SDS011;54551;51.068;5.826;2022-11-20T00:10:27;35.33;;;23.70;;
67751;SDS011;54551;51.068;5.826;2022-11-20T00:12:52;47.80;;;27.87;;
67751;SDS011;54551;51.068;5.826;2022-11-20T00:15:18;32.13;;;21.77;;
67751;SDS011;54551;51.068;5.826;2022-11-20T00:17:44;22.80;;;18.57;;
67751;SDS011;54551;51.068;5.826;2022-11-20T00:20:10;24.07;;;18.97;;
67751;SDS011;54551;51.068;5.826;2022-11-20T00:22:36;20.67;;;17.70;;
67751;SDS011;54551;51.068;5.826;2022-11-20T00:25:02;22.60;;;18.40;;
67751;SDS011;54551;51.068;5.826;2022-11-20T00:27:28;18.43;;;16.53;;
67751;SDS011;54551;51.068;5.826;2022-11-20T00:29:54;21.97;;;17.57;;
67751;SDS011;54551;51.068;5.826;2022-11-20T00:32:20;22.97;;;18.50;;
67751;SDS011;54551;51.068;5.826;2022-11-20T00:34:46;23.00;;;18.17;;
67751;SDS011;54551;51.068;5.826;2022-11-20T00:37:12;21.67;;;16.97;;
67751;SDS011;54551;51.068;5.826;2022-11-20T00:39:38;22.83;;;18.93;;
67751;SDS011;54551;51.068;5.826;2022-11-20T00:42:04;25.60;;;18.43;;
67751;SDS011;54551;51.068;5.826;2022-11-20T00:44:29;24.00;;;18.83;;
67751;SDS011;54551;51.068;5.826;2022-11-20T00:46:55;21.97;;;18.23;;
67751;SDS011;54551;51.068;5.826;2022-11-20T00:49:21;24.00;;;19.77;;
67751;SDS011;54551;51.068;5.826;2022-11-20T00:51:47;21.73;;;18.50;;
67751;SDS011;54551;51.068;5.826;2022-11-20T00:54:13;21.57;;;18.63;;
67751;SDS011;54551;51.068;5.826;2022-11-20T00:56:39;22.77;;;19.17;;
67751;SDS011;54551;51.068;5.826;2022-11-20T00:59:05;24.87;;;20.23;;
67751;SDS011;54551;51.068;5.826;2022-11-20T01:01:31;23.10;;;20.43;;
67751;SDS011;54551;51.068;5.826;2022-11-20T01:03:58;24.73;;;20.23;;
67751;SDS011;54551;51.068;5.826;2022-11-20T01:06:42;22.60;;;19.57;;
67751;SDS011;54551;51.068;5.826;2022-11-20T01:09:12;24.57;;;19.83;;
67751;SDS011;54551;51.068;5.826;2022-11-20T01:11:40;25.07;;;20.80;;
67751;SDS011;54551;51.068;5.826;2022-11-20T01:14:12;25.23;;;21.00;;
67751;SDS011;54551;51.068;5.826;2022-11-20T01:16:41;24.70;;;20.83;;
67751;SDS011;54551;51.068;5.826;2022-11-20T01:19:10;25.60;;;20.57;;
67751;SDS011;54551;51.068;5.826;2022-11-20T01:21:38;25.73;;;20.50;;
67751;SDS011;54551;51.068;5.826;2022-11-20T01:24:06;25.00;;;20.23;;
67751;SDS011;54551;51.068;5.826;2022-11-20T01:26:36;26.03;;;21.93;;
67751;SDS011;54551;51.068;5.826;2022-11-20T01:29:03;22.87;;;19.80;;
67751;SDS011;54551;51.068;5.826;2022-11-20T01:31:34;24.90;;;19.30;;
67751;SDS011;54551;51.068;5.826;2022-11-20T01:34:03;24.37;;;20.03;;
67751;SDS011;54551;51.068;5.826;2022-11-20T01:36:31;24.23;;;19.63;;
67751;SDS011;54551;51.068;5.826;2022-11-20T01:38:59;23.60;;;20.07;;
67751;SDS011;54551;51.068;5.826;2022-11-20T01:41:29;25.60;;;20.30;;
67751;SDS011;54551;51.068;5.826;2022-11-20T01:44:16;25.03;;;20.87;;
67751;SDS011;54551;51.068;5.826;2022-11-20T01:46:52;24.90;;;19.73;;
67751;SDS011;54551;51.068;5.826;2022-11-20T01:49:23;25.23;;;21.10;;
67751;SDS011;54551;51.068;5.826;2022-11-20T01:52:01;25.73;;;21.63;;
67751;SDS011;54551;51.068;5.826;2022-11-20T01:54:37;25.07;;;20.70;;
67751;SDS011;54551;51.068;5.826;2022-11-20T01:57:06;27.93;;;22.53;;
67751;SDS011;54551;51.068;5.826;2022-11-20T01:59:36;23.43;;;20.10;;
67751;SDS011;54551;51.068;5.826;2022-11-20T02:02:09;24.83;;;19.57;;
67751;SDS011;54551;51.068;5.826;2022-11-20T02:04:35;25.73;;;20.90;;
67751;SDS011;54551;51.068;5.826;2022-11-20T02:07:02;24.13;;;20.90;;
67751;SDS011;54551;51.068;5.826;2022-11-20T02:09:30;24.30;;;19.83;;
67751;SDS011;54551;51.068;5.826;2022-11-20T02:11:56;24.67;;;19.93;;
67751;SDS011;54551;51.068;5.826;2022-11-20T02:14:23;22.83;;;20.37;;
67751;SDS011;54551;51.068;5.826;2022-11-20T02:16:50;26.57;;;20.53;;
67751;SDS011;54551;51.068;5.826;2022-11-20T02:24:18;21.77;;;18.03;;
67751;SDS011;54551;51.068;5.826;2022-11-20T02:26:52;19.53;;;17.47;;
67751;SDS011;54551;51.068;5.826;2022-11-20T02:29:37;20.30;;;17.00;;
67751;SDS011;54551;51.068;5.826;2022-11-20T02:32:28;19.50;;;16.73;;
67751;SDS011;54551;51.068;5.826;2022-11-20T02:34:54;19.17;;;16.70;;
67751;SDS011;54551;51.068;5.826;2022-11-20T02:37:20;20.13;;;17.17;;
67751;SDS011;54551;51.068;5.826;2022-11-20T02:39:47;19.23;;;16.73;;
67751;SDS011;54551;51.068;5.826;2022-11-20T02:42:15;21.93;;;17.90;;
67751;SDS011;54551;51.068;5.826;2022-11-20T02:44:41;20.50;;;16.43;;
67751;SDS011;54551;51.068;5.826;2022-11-20T02:47:06;21.33;;;17.30;;
67751;SDS011;54551;51.068;5.826;2022-11-20T02:49:32;19.30;;;16.87;;
67751;SDS011;54551;51.068;5.826;2022-11-20T02:51:58;22.53;;;17.87;;
67751;SDS011;54551;51.068;5.826;2022-11-20T02:54:25;20.27;;;16.80;;
67751;SDS011;54551;51.068;5.826;2022-11-20T02:56:50;22.53;;;17.47;;
67751;SDS011;54551;51.068;5.826;2022-11-20T02:59:17;19.07;;;16.63;;
67751;SDS011;54551;51.068;5.826;2022-11-20T03:01:42;21.13;;;17.53;;
67751;SDS011;54551;51.068;5.826;2022-11-20T03:04:08;21.40;;;17.40;;
67751;SDS011;54551;51.068;5.826;2022-11-20T03:06:34;20.87;;;17.93;;
67751;SDS011;54551;51.068;5.826;2022-11-20T03:09:00;18.80;;;16.27;;
67751;SDS011;54551;51.068;5.826;2022-11-20T03:11:26;18.53;;;16.37;;
67751;SDS011;54551;51.068;5.826;2022-11-20T03:13:52;18.77;;;16.77;;
67751;SDS011;54551;51.068;5.826;2022-11-20T03:16:20;19.23;;;17.13;;
67751;SDS011;54551;51.068;5.826;2022-11-20T03:18:47;20.53;;;17.40;;
67751;SDS011;54551;51.068;5.826;2022-11-20T03:21:13;19.47;;;17.37;;
67751;SDS011;54551;51.068;5.826;2022-11-20T03:23:40;19.60;;;17.40;;
67751;SDS011;54551;51.068;5.826;2022-11-20T03:26:07;20.30;;;17.57;;
67751;SDS011;54551;51.068;5.826;2022-11-20T03:28:37;19.97;;;17.80;;
67751;SDS011;54551;51.068;5.826;2022-11-20T03:31:10;22.20;;;17.10;;
67751;SDS011;54551;51.068;5.826;2022-11-20T03:33:38;21.07;;;18.10;;
67751;SDS011;54551;51.068;5.826;2022-11-20T03:36:06;21.67;;;17.63;;
67751;SDS011;54551;51.068;5.826;2022-11-20T03:38:33;19.00;;;16.77;;
67751;SDS011;54551;51.068;5.826;2022-11-20T03:41:00;18.87;;;16.73;;
67751;SDS011;54551;51.068;5.826;2022-11-20T03:43:28;21.93;;;16.87;;
67751;SDS011;54551;51.068;5.826;2022-11-20T03:45:54;19.07;;;17.07;;
67751;SDS011;54551;51.068;5.826;2022-11-20T03:48:20;19.27;;;17.17;;
67751;SDS011;54551;51.068;5.826;2022-11-20T03:50:46;23.17;;;17.40;;
67751;SDS011;54551;51.068;5.826;2022-11-20T03:53:16;21.40;;;17.20;;
67751;SDS011;54551;51.068;5.826;2022-11-20T03:55:42;20.10;;;16.97;;
67751;SDS011;54551;51.068;5.826;2022-11-20T03:58:08;20.47;;;17.50;;
67751;SDS011;54551;51.068;5.826;2022-11-20T04:00:34;22.53;;;16.73;;
67751;SDS011;54551;51.068;5.826;2022-11-20T04:03:01;21.73;;;18.40;;
67751;SDS011;54551;51.068;5.826;2022-11-20T04:05:27;20.93;;;17.27;;
67751;SDS011;54551;51.068;5.826;2022-11-20T04:07:53;20.30;;;17.13;;
67751;SDS011;54551;51.068;5.826;2022-11-20T04:10:19;19.17;;;17.07;;
67751;SDS011;54551;51.068;5.826;2022-11-20T04:12:45;20.83;;;17.63;;
67751;SDS011;54551;51.068;5.826;2022-11-20T04:15:11;20.03;;;17.33;;
67751;SDS011;54551;51.068;5.826;2022-11-20T04:17:37;19.30;;;17.23;;
67751;SDS011;54551;51.068;5.826;2022-11-20T04:20:03;18.70;;;16.80;;
67751;SDS011;54551;51.068;5.826;2022-11-20T04:22:29;21.03;;;18.13;;
67751;SDS011;54551;51.068;5.826;2022-11-20T04:24:55;21.57;;;18.03;;
67751;SDS011;54551;51.068;5.826;2022-11-20T04:27:21;20.63;;;17.20;;
67751;SDS011;54551;51.068;5.826;2022-11-20T04:29:47;20.03;;;17.70;;
67751;SDS011;54551;51.068;5.826;2022-11-20T04:32:12;21.43;;;17.03;;
67751;SDS011;54551;51.068;5.826;2022-11-20T04:34:38;21.07;;;17.33;;
67751;SDS011;54551;51.068;5.826;2022-11-20T04:37:04;19.77;;;17.67;;
67751;SDS011;54551;51.068;5.826;2022-11-20T04:39:30;23.53;;;18.70;;
67751;SDS011;54551;51.068;5.826;2022-11-20T04:41:56;21.37;;;18.37;;
67751;SDS011;54551;51.068;5.826;2022-11-20T04:44:40;20.30;;;17.37;;
67751;SDS011;54551;51.068;5.826;2022-11-20T04:47:06;19.03;;;16.57;;
67751;SDS011;54551;51.068;5.826;2022-11-20T04:49:32;19.67;;;17.00;;
67751;SDS011;54551;51.068;5.826;2022-11-20T04:51:58;20.50;;;17.03;;
67751;SDS011;54551;51.068;5.826;2022-11-20T04:54:24;20.77;;;17.63;;
67751;SDS011;54551;51.068;5.826;2022-11-20T04:56:50;19.30;;;17.20;;
67751;SDS011;54551;51.068;5.826;2022-11-20T04:59:16;22.20;;;18.03;;
67751;SDS011;54551;51.068;5.826;2022-11-20T05:01:42;20.53;;;18.33;;
67751;SDS011;54551;51.068;5.826;2022-11-20T05:04:08;22.13;;;17.97;;
67751;SDS011;54551;51.068;5.826;2022-11-20T05:06:33;20.57;;;17.53;;
67751;SDS011;54551;51.068;5.826;2022-11-20T05:08:59;20.87;;;18.53;;
67751;SDS011;54551;51.068;5.826;2022-11-20T05:11:26;21.03;;;18.77;;
67751;SDS011;54551;51.068;5.826;2022-11-20T05:13:54;22.33;;;17.43;;
67751;SDS011;54551;51.068;5.826;2022-11-20T05:16:21;19.40;;;17.10;;
67751;SDS011;54551;51.068;5.826;2022-11-20T05:18:49;19.20;;;17.13;;
67751;SDS011;54551;51.068;5.826;2022-11-20T05:21:16;20.10;;;18.00;;
67751;SDS011;54551;51.068;5.826;2022-11-20T05:23:43;19.97;;;17.20;;
67751;SDS011;54551;51.068;5.826;2022-11-20T05:26:28;19.30;;;17.30;;
67751;SDS011;54551;51.068;5.826;2022-11-20T05:28:53;19.13;;;16.73;;
67751;SDS011;54551;51.068;5.826;2022-11-20T05:31:23;19.60;;;17.33;;
67751;SDS011;54551;51.068;5.826;2022-11-20T05:33:49;20.97;;;18.53;;
67751;SDS011;54551;51.068;5.826;2022-11-20T05:36:16;19.27;;;17.23;;
67751;SDS011;54551;51.068;5.826;2022-11-20T05:38:42;20.23;;;17.50;;
67751;SDS011;54551;51.068;5.826;2022-11-20T05:43:40;21.93;;;17.53;;
67751;SDS011;54551;51.068;5.826;2022-11-20T05:46:07;21.00;;;17.57;;
67751;SDS011;54551;51.068;5.826;2022-11-20T05:48:35;21.13;;;18.03;;
67751;SDS011;54551;51.068;5.826;2022-11-20T05:51:02;21.30;;;18.00;;
67751;SDS011;54551;51.068;5.826;2022-11-20T05:53:29;20.63;;;18.27;;
67751;SDS011;54551;51.068;5.826;2022-11-20T05:55:56;21.60;;;17.27;;
67751;SDS011;54551;51.068;5.826;2022-11-20T05:58:25;18.53;;;16.53;;
67751;SDS011;54551;51.068;5.826;2022-11-20T06:00:52;23.33;;;18.63;;
67751;SDS011;54551;51.068;5.826;2022-11-20T06:03:18;20.23;;;17.37;;
67751;SDS011;54551;51.068;5.826;2022-11-20T06:05:44;20.53;;;18.07;;
67751;SDS011;54551;51.068;5.826;2022-11-20T06:08:10;19.97;;;17.77;;
67751;SDS011;54551;51.068;5.826;2022-11-20T06:10:36;20.73;;;17.73;;
67751;SDS011;54551;51.068;5.826;2022-11-20T06:13:02;21.97;;;17.80;;
67751;SDS011;54551;51.068;5.826;2022-11-20T06:15:28;19.50;;;17.40;;
67751;SDS011;54551;51.068;5.826;2022-11-20T06:17:54;23.10;;;19.30;;
67751;SDS011;54551;51.068;5.826;2022-11-20T06:20:21;29.63;;;21.33;;
67751;SDS011;54551;51.068;5.826;2022-11-20T06:22:47;31.57;;;21.93;;
67751;SDS011;54551;51.068;5.826;2022-11-20T06:25:13;37.43;;;23.80;;
67751;SDS011;54551;51.068;5.826;2022-11-20T06:27:39;38.57;;;24.93;;
67751;SDS011;54551;51.068;5.826;2022-11-20T06:30:05;38.57;;;23.40;;
67751;SDS011;54551;51.068;5.826;2022-11-20T06:32:32;40.17;;;23.97;;
67751;SDS011;54551;51.068;5.826;2022-11-20T06:34:58;33.97;;;23.13;;
67751;SDS011;54551;51.068;5.826;2022-11-20T06:37:24;38.73;;;24.60;;
67751;SDS011;54551;51.068;5.826;2022-11-20T06:39:50;35.57;;;23.73;;
67751;SDS011;54551;51.068;5.826;2022-11-20T06:42:15;32.13;;;23.50;;
67751;SDS011;54551;51.068;5.826;2022-11-20T06:44:41;35.63;;;23.37;;
67751;SDS011;54551;51.068;5.826;2022-11-20T06:47:07;40.13;;;25.50;;
67751;SDS011;54551;51.068;5.826;2022-11-20T06:49:33;38.33;;;25.00;;
67751;SDS011;54551;51.068;5.826;2022-11-20T06:51:59;41.13;;;26.47;;
67751;SDS011;54551;51.068;5.826;2022-11-20T06:54:25;42.07;;;25.97;;
67751;SDS011;54551;51.068;5.826;2022-11-20T06:56:51;41.37;;;26.03;;
67751;SDS011;54551;51.068;5.826;2022-11-20T06:59:17;39.00;;;25.93;;
67751;SDS011;54551;51.068;5.826;2022-11-20T07:01:42;43.50;;;26.93;;
67751;SDS011;54551;51.068;5.826;2022-11-20T07:04:08;41.03;;;26.33;;
67751;SDS011;54551;51.068;5.826;2022-11-20T07:06:34;44.23;;;28.00;;
67751;SDS011;54551;51.068;5.826;2022-11-20T07:09:00;41.60;;;27.27;;
67751;SDS011;54551;51.068;5.826;2022-11-20T07:11:26;40.37;;;28.13;;
67751;SDS011;54551;51.068;5.826;2022-11-20T07:13:52;42.20;;;27.53;;
67751;SDS011;54551;51.068;5.826;2022-11-20T07:16:18;42.40;;;27.27;;
67751;SDS011;54551;51.068;5.826;2022-11-20T07:18:44;38.87;;;27.73;;
67751;SDS011;54551;51.068;5.826;2022-11-20T07:21:10;40.03;;;28.13;;
67751;SDS011;54551;51.068;5.826;2022-11-20T07:23:36;39.63;;;27.77;;
67751;SDS011;54551;51.068;5.826;2022-11-20T07:26:05;43.57;;;28.87;;
67751;SDS011;54551;51.068;5.826;2022-11-20T07:28:33;40.07;;;27.83;;
67751;SDS011;54551;51.068;5.826;2022-11-20T07:30:59;37.70;;;27.27;;
67751;SDS011;54551;51.068;5.826;2022-11-20T07:33:25;41.57;;;27.10;;
67751;SDS011;54551;51.068;5.826;2022-11-20T07:35:50;42.23;;;28.60;;
67751;SDS011;54551;51.068;5.826;2022-11-20T07:38:16;38.47;;;26.20;;
67751;SDS011;54551;51.068;5.826;2022-11-20T07:40:42;38.67;;;26.93;;
67751;SDS011;54551;51.068;5.826;2022-11-20T07:43:08;42.63;;;27.07;;
67751;SDS011;54551;51.068;5.826;2022-11-20T07:45:34;39.47;;;25.10;;
67751;SDS011;54551;51.068;5.826;2022-11-20T07:48:00;36.57;;;25.67;;
67751;SDS011;54551;51.068;5.826;2022-11-20T07:50:26;36.70;;;24.70;;
67751;SDS011;54551;51.068;5.826;2022-11-20T07:52:52;32.30;;;23.30;;
67751;SDS011;54551;51.068;5.826;2022-11-20T07:55:24;37.60;;;24.63;;
67751;SDS011;54551;51.068;5.826;2022-11-20T07:57:54;31.70;;;24.13;;
67751;SDS011;54551;51.068;5.826;2022-11-20T08:00:21;31.97;;;23.33;;
67751;SDS011;54551;51.068;5.826;2022-11-20T08:02:47;39.40;;;24.67;;
67751;SDS011;54551;51.068;5.826;2022-11-20T08:05:12;34.60;;;25.20;;
67751;SDS011;54551;51.068;5.826;2022-11-20T08:07:39;41.17;;;27.63;;
67751;SDS011;54551;51.068;5.826;2022-11-20T08:10:06;39.90;;;27.27;;
67751;SDS011;54551;51.068;5.826;2022-11-20T08:12:33;38.77;;;28.10;;
67751;SDS011;54551;51.068;5.826;2022-11-20T08:15:17;40.97;;;27.63;;
67751;SDS011;54551;51.068;5.826;2022-11-20T08:17:43;35.10;;;25.97;;
67751;SDS011;54551;51.068;5.826;2022-11-20T08:20:09;36.47;;;24.23;;
67751;SDS011;54551;51.068;5.826;2022-11-20T08:22:35;44.43;;;26.77;;
67751;SDS011;54551;51.068;5.826;2022-11-20T08:25:01;34.80;;;25.40;;
67751;SDS011;54551;51.068;5.826;2022-11-20T08:27:27;35.17;;;24.40;;
67751;SDS011;54551;51.068;5.826;2022-11-20T08:29:53;33.37;;;23.90;;
67751;SDS011;54551;51.068;5.826;2022-11-20T08:32:19;31.27;;;23.77;;
67751;SDS011;54551;51.068;5.826;2022-11-20T08:34:45;34.67;;;24.40;;
67751;SDS011;54551;51.068;5.826;2022-11-20T08:37:11;32.17;;;23.20;;
67751;SDS011;54551;51.068;5.826;2022-11-20T08:39:37;34.43;;;24.50;;
67751;SDS011;54551;51.068;5.826;2022-11-20T08:42:06;33.53;;;24.50;;
67751;SDS011;54551;51.068;5.826;2022-11-20T08:44:32;31.40;;;22.57;;
67751;SDS011;54551;51.068;5.826;2022-11-20T08:46:58;32.50;;;23.73;;
67751;SDS011;54551;51.068;5.826;2022-11-20T08:49:25;32.40;;;24.53;;
67751;SDS011;54551;51.068;5.826;2022-11-20T08:51:51;34.30;;;24.50;;
67751;SDS011;54551;51.068;5.826;2022-11-20T08:54:20;35.40;;;24.87;;
67751;SDS011;54551;51.068;5.826;2022-11-20T08:56:47;33.93;;;24.30;;
67751;SDS011;54551;51.068;5.826;2022-11-20T08:59:13;31.80;;;22.90;;
67751;SDS011;54551;51.068;5.826;2022-11-20T09:01:39;32.93;;;23.77;;
67751;SDS011;54551;51.068;5.826;2022-11-20T09:04:05;32.03;;;23.90;;
67751;SDS011;54551;51.068;5.826;2022-11-20T09:06:31;29.80;;;22.40;;
67751;SDS011;54551;51.068;5.826;2022-11-20T09:08:56;34.67;;;25.10;;
67751;SDS011;54551;51.068;5.826;2022-11-20T09:11:22;32.60;;;24.00;;
67751;SDS011;54551;51.068;5.826;2022-11-20T09:13:48;35.53;;;23.97;;
67751;SDS011;54551;51.068;5.826;2022-11-20T09:16:14;34.60;;;23.37;;
67751;SDS011;54551;51.068;5.826;2022-11-20T09:18:40;31.47;;;24.17;;
67751;SDS011;54551;51.068;5.826;2022-11-20T09:21:08;29.13;;;22.57;;
67751;SDS011;54551;51.068;5.826;2022-11-20T09:23:36;32.83;;;23.10;;
67751;SDS011;54551;51.068;5.826;2022-11-20T09:26:09;27.70;;;22.73;;
67751;SDS011;54551;51.068;5.826;2022-11-20T09:28:36;31.63;;;23.57;;
67751;SDS011;54551;51.068;5.826;2022-11-20T09:31:09;33.33;;;24.33;;
67751;SDS011;54551;51.068;5.826;2022-11-20T09:33:56;29.67;;;22.30;;
67751;SDS011;54551;51.068;5.826;2022-11-20T09:36:22;28.60;;;21.63;;
67751;SDS011;54551;51.068;5.826;2022-11-20T09:38:48;30.53;;;22.57;;
67751;SDS011;54551;51.068;5.826;2022-11-20T09:46:53;36.20;;;24.73;;
67751;SDS011;54551;51.068;5.826;2022-11-20T09:54:58;32.13;;;24.07;;
67751;SDS011;54551;51.068;5.826;2022-11-20T09:57:46;34.60;;;24.00;;
67751;SDS011;54551;51.068;5.826;2022-11-20T10:00:13;36.10;;;25.60;;
67751;SDS011;54551;51.068;5.826;2022-11-20T10:02:48;31.10;;;23.00;;
67751;SDS011;54551;51.068;5.826;2022-11-20T10:05:25;31.23;;;24.27;;
67751;SDS011;54551;51.068;5.826;2022-11-20T10:07:59;35.00;;;25.53;;
67751;SDS011;54551;51.068;5.826;2022-11-20T10:10:47;34.37;;;24.93;;
67751;SDS011;54551;51.068;5.826;2022-11-20T10:15:53;35.33;;;25.00;;
67751;SDS011;54551;51.068;5.826;2022-11-20T10:26:50;34.63;;;25.00;;
67751;SDS011;54551;51.068;5.826;2022-11-20T10:29:29;36.10;;;24.73;;
67751;SDS011;54551;51.068;5.826;2022-11-20T10:32:07;34.13;;;25.47;;
67751;SDS011;54551;51.068;5.826;2022-11-20T10:37:23;35.07;;;24.07;;
67751;SDS011;54551;51.068;5.826;2022-11-20T10:42:30;31.53;;;23.80;;
67751;SDS011;54551;51.068;5.826;2022-11-20T10:47:48;31.13;;;23.17;;
67751;SDS011;54551;51.068;5.826;2022-11-20T10:50:16;34.17;;;24.43;;
67751;SDS011;54551;51.068;5.826;2022-11-20T10:53:05;34.37;;;23.90;;
67751;SDS011;54551;51.068;5.826;2022-11-20T10:56:07;32.37;;;24.40;;
67751;SDS011;54551;51.068;5.826;2022-11-20T10:58:48;36.10;;;25.20;;
67751;SDS011;54551;51.068;5.826;2022-11-20T11:01:27;38.37;;;25.37;;
67751;SDS011;54551;51.068;5.826;2022-11-20T11:03:54;34.00;;;25.23;;
67751;SDS011;54551;51.068;5.826;2022-11-20T11:09:29;36.23;;;25.83;;
67751;SDS011;54551;51.068;5.826;2022-11-20T11:11:59;32.77;;;24.10;;
67751;SDS011;54551;51.068;5.826;2022-11-20T11:14:25;35.03;;;26.67;;
67751;SDS011;54551;51.068;5.826;2022-11-20T11:16:52;35.57;;;26.00;;
67751;SDS011;54551;51.068;5.826;2022-11-20T11:19:22;37.23;;;26.23;;
67751;SDS011;54551;51.068;5.826;2022-11-20T11:21:53;36.17;;;26.43;;
67751;SDS011;54551;51.068;5.826;2022-11-20T11:24:22;39.67;;;27.17;;
67751;SDS011;54551;51.068;5.826;2022-11-20T11:26:55;36.50;;;25.53;;
67751;SDS011;54551;51.068;5.826;2022-11-20T11:29:24;40.83;;;26.30;;
67751;SDS011;54551;51.068;5.826;2022-11-20T11:32:15;35.47;;;24.90;;
67751;SDS011;54551;51.068;5.826;2022-11-20T11:34:44;41.60;;;25.57;;
67751;SDS011;54551;51.068;5.826;2022-11-20T11:37:15;43.97;;;26.47;;
67751;SDS011;54551;51.068;5.826;2022-11-20T11:39:43;40.73;;;27.80;;
67751;SDS011;54551;51.068;5.826;2022-11-20T11:42:12;39.30;;;25.43;;
67751;SDS011;54551;51.068;5.826;2022-11-20T11:44:46;40.37;;;26.30;;
67751;SDS011;54551;51.068;5.826;2022-11-20T11:47:32;42.87;;;26.87;;
67751;SDS011;54551;51.068;5.826;2022-11-20T11:55:07;46.77;;;29.10;;
67751;SDS011;54551;51.068;5.826;2022-11-20T12:00:20;44.33;;;29.33;;
67751;SDS011;54551;51.068;5.826;2022-11-20T12:05:38;46.67;;;28.60;;
67751;SDS011;54551;51.068;5.826;2022-11-20T12:16:07;46.00;;;29.73;;
67751;SDS011;54551;51.068;5.826;2022-11-20T12:18:38;44.20;;;29.10;;
67751;SDS011;54551;51.068;5.826;2022-11-20T12:24:05;42.97;;;27.07;;
67751;SDS011;54551;51.068;5.826;2022-11-20T12:26:45;46.83;;;29.77;;
67751;SDS011;54551;51.068;5.826;2022-11-20T12:29:32;41.27;;;26.33;;
67751;SDS011;54551;51.068;5.826;2022-11-20T12:35:04;42.53;;;27.27;;
67751;SDS011;54551;51.068;5.826;2022-11-20T12:40:23;46.03;;;29.03;;
67751;SDS011;54551;51.068;5.826;2022-11-20T12:43:05;43.43;;;28.73;;
67751;SDS011;54551;51.068;5.826;2022-11-20T12:46:07;44.47;;;27.93;;
67751;SDS011;54551;51.068;5.826;2022-11-20T12:56:50;41.10;;;27.17;;
67751;SDS011;54551;51.068;5.826;2022-11-20T12:59:46;39.93;;;26.17;;
67751;SDS011;54551;51.068;5.826;2022-11-20T13:07:52;40.20;;;26.23;;
67751;SDS011;54551;51.068;5.826;2022-11-20T13:10:33;41.77;;;27.20;;
67751;SDS011;54551;51.068;5.826;2022-11-20T13:16:02;43.40;;;27.53;;
67751;SDS011;54551;51.068;5.826;2022-11-20T13:18:45;41.90;;;27.37;;
67751;SDS011;54551;51.068;5.826;2022-11-20T13:21:21;45.10;;;28.50;;
67751;SDS011;54551;51.068;5.826;2022-11-20T13:24:07;41.23;;;26.80;;
67751;SDS011;54551;51.068;5.826;2022-11-20T13:29:34;43.97;;;28.20;;
67751;SDS011;54551;51.068;5.826;2022-11-20T13:32:20;42.60;;;27.87;;
67751;SDS011;54551;51.068;5.826;2022-11-20T13:34:59;44.00;;;26.67;;
67751;SDS011;54551;51.068;5.826;2022-11-20T13:37:35;39.93;;;26.30;;
67751;SDS011;54551;51.068;5.826;2022-11-20T13:47:50;39.00;;;24.80;;
67751;SDS011;54551;51.068;5.826;2022-11-20T13:50:17;31.87;;;22.20;;
67751;SDS011;54551;51.068;5.826;2022-11-20T13:53:02;32.90;;;22.93;;
67751;SDS011;54551;51.068;5.826;2022-11-20T13:56:03;33.17;;;22.63;;
67751;SDS011;54551;51.068;5.826;2022-11-20T13:59:21;31.83;;;22.50;;
67751;SDS011;54551;51.068;5.826;2022-11-20T14:01:31;34.17;;;21.83;;
67751;SDS011;54551;51.068;5.826;2022-11-20T14:04:00;31.87;;;20.47;;
67751;SDS011;54551;51.068;5.826;2022-11-20T14:06:43;33.87;;;19.63;;
67751;SDS011;54551;51.068;5.826;2022-11-20T14:09:31;24.70;;;18.90;;
67751;SDS011;54551;51.068;5.826;2022-11-20T14:11:58;17.37;;;11.50;;
67751;SDS011;54551;51.068;5.826;2022-11-20T14:14:25;11.60;;;5.87;;
67751;SDS011;54551;51.068;5.826;2022-11-20T14:17:04;7.40;;;2.90;;
67751;SDS011;54551;51.068;5.826;2022-11-20T14:19:49;4.67;;;2.37;;
67751;SDS011;54551;51.068;5.826;2022-11-20T14:22:18;4.80;;;1.83;;
67751;SDS011;54551;51.068;5.826;2022-11-20T14:24:49;2.37;;;1.43;;
67751;SDS011;54551;51.068;5.826;2022-11-20T14:27:55;3.80;;;1.30;;
67751;SDS011;54551;51.068;5.826;2022-11-20T14:30:23;3.80;;;1.53;;
67751;SDS011;54551;51.068;5.826;2022-11-20T14:33:10;3.67;;;1.37;;
67751;SDS011;54551;51.068;5.826;2022-11-20T14:35:45;3.23;;;1.27;;
67751;SDS011;54551;51.068;5.826;2022-11-20T14:38:17;2.63;;;1.20;;
67751;SDS011;54551;51.068;5.826;2022-11-20T14:40:45;2.20;;;1.30;;
67751;SDS011;54551;51.068;5.826;2022-11-20T14:45:58;3.70;;;1.43;;
67751;SDS011;54551;51.068;5.826;2022-11-20T14:48:33;3.07;;;1.70;;
67751;SDS011;54551;51.068;5.826;2022-11-20T14:51:03;3.03;;;1.67;;
67751;SDS011;54551;51.068;5.826;2022-11-20T14:53:29;3.83;;;1.87;;
67751;SDS011;54551;51.068;5.826;2022-11-20T14:55:56;2.50;;;1.70;;
67751;SDS011;54551;51.068;5.826;2022-11-20T14:58:25;2.73;;;1.90;;
67751;SDS011;54551;51.068;5.826;2022-11-20T15:00:54;4.77;;;1.83;;
67751;SDS011;54551;51.068;5.826;2022-11-20T15:03:21;3.07;;;1.97;;
67751;SDS011;54551;51.068;5.826;2022-11-20T15:05:48;3.40;;;1.87;;
67751;SDS011;54551;51.068;5.826;2022-11-20T15:08:16;3.73;;;2.00;;
67751;SDS011;54551;51.068;5.826;2022-11-20T15:10:46;4.33;;;2.23;;
67751;SDS011;54551;51.068;5.826;2022-11-20T15:13:36;3.20;;;2.10;;
67751;SDS011;54551;51.068;5.826;2022-11-20T15:16:02;4.10;;;2.20;;
67751;SDS011;54551;51.068;5.826;2022-11-20T15:18:36;3.50;;;2.47;;
67751;SDS011;54551;51.068;5.826;2022-11-20T15:21:09;3.80;;;2.30;;
67751;SDS011;54551;51.068;5.826;2022-11-20T15:23:36;4.63;;;2.40;;
67751;SDS011;54551;51.068;5.826;2022-11-20T15:26:06;3.57;;;2.30;;
67751;SDS011;54551;51.068;5.826;2022-11-20T15:28:34;7.43;;;3.00;;
67751;SDS011;54551;51.068;5.826;2022-11-20T15:31:02;6.33;;;3.07;;
67751;SDS011;54551;51.068;5.826;2022-11-20T15:33:29;5.30;;;2.50;;
67751;SDS011;54551;51.068;5.826;2022-11-20T15:35:56;5.23;;;2.60;;
67751;SDS011;54551;51.068;5.826;2022-11-20T15:38:22;3.10;;;2.77;;
67751;SDS011;54551;51.068;5.826;2022-11-20T15:40:49;5.17;;;2.90;;
67751;SDS011;54551;51.068;5.826;2022-11-20T15:43:15;6.77;;;3.13;;
67751;SDS011;54551;51.068;5.826;2022-11-20T15:45:44;5.63;;;3.40;;
67751;SDS011;54551;51.068;5.826;2022-11-20T15:48:11;4.20;;;3.37;;
67751;SDS011;54551;51.068;5.826;2022-11-20T15:50:50;5.30;;;3.37;;
67751;SDS011;54551;51.068;5.826;2022-11-20T15:53:20;4.60;;;3.03;;
67751;SDS011;54551;51.068;5.826;2022-11-20T15:55:46;6.80;;;3.60;;
67751;SDS011;54551;51.068;5.826;2022-11-20T15:58:12;8.47;;;5.37;;
67751;SDS011;54551;51.068;5.826;2022-11-20T16:00:40;4.20;;;3.43;;
67751;SDS011;54551;51.068;5.826;2022-11-20T16:03:08;5.07;;;3.43;;
67751;SDS011;54551;51.068;5.826;2022-11-20T16:05:36;7.07;;;4.63;;
67751;SDS011;54551;51.068;5.826;2022-11-20T16:08:02;8.23;;;4.03;;
67751;SDS011;54551;51.068;5.826;2022-11-20T16:10:27;5.40;;;3.27;;
67751;SDS011;54551;51.068;5.826;2022-11-20T16:12:54;4.73;;;3.60;;
67751;SDS011;54551;51.068;5.826;2022-11-20T16:15:38;5.40;;;4.10;;
67751;SDS011;54551;51.068;5.826;2022-11-20T16:18:11;7.07;;;4.17;;